Capitol Logistics 239


KMIA
Miami International Airport
Miami, Florida, US
TJSJ
Luis Munoz Marin International Airport
San Juan, , PR

Activity Log

Date Flight Route Aircraft Duration
09/28/2019 CPX239 SKIPS2 SKIPS Y290 BEANO B763 2h 54m
06/18/2019 CPX239 SKIPS2 SKIPS Y290 BEANO B763 2h 18m
05/26/2019 CPX239 SKIPS2 SKIPS Y290 BEANO B763 2h 20m
04/06/2019 CPX239 SKIPS2 SKIPS Y290 BEANO B763 2h 18m
02/16/2019 CPX239 SKIPS2 SKIPS Y290 BEANO BEANO3 B763 2h 14m

Route Details

Aircraft Information
Primary: Boeing 767-300BDSF
Backup: Not Available
Route Data
Distance: 909nm
Sched. Duration: 2h 00m
Avg. Duration: 2h 25m (+25m)
Times Flown: 5
Recm'd Route: SKIPS2 SKIPS Y290 BEANO
Planned Altitude: 35,000ft
Origin Wx: KMIA 271553Z 32011G19KT 10SM FEW110 BKN140 BKN230 18/05 A3016 RMK AO2 SLP213 T01830050
Dest. Wx: TJSJ 271556Z 07013KT 10SM FEW045 27/19 A3006 RMK AO2 SLP179 T02720194
Notes:

Financial History
Total Freight: 445,816lbs
Average Load: 89,163lbs/flt
Fuel Used: 126,361lbs
Avg. Fuel Used: 25,272lbs/flt
Fuel Expense: $155,424
Avg. Fuel Expense: $31,085
Avg. Fuel Cost: $1.23/lbs
Total Gross Income: $584,019
Pilot Pay: $825
Total Expenses: $63,334
Total Revenue: $362,630
Average Revenue: $116,803.79